Kirishi, Russia
Current Conditions -  °F | °C
As of 12:30 PM on Sunday 23 Nov 2014 (Local Time) from ULLI Reporting Station
Overcast Overcast  
Wind Chill: 34°   Ceiling: 4600
Heat Index: 34°   Visibility: 4mi
Dew Point: 32°   Wind: 2mph
Humidity: 93%   Direction: NA
Pressure: 30.53"   Gusts: NA
Location:  59.46°N, 32.02°E
Report Text: ULLI 230930Z VRB01MPS 6000 BKN046 OVC066 01/00 Q1034 88290050NOSIG
Loading
Personal Weather Stations






























Interactive Weather Map New forecast layout! Learn more

10-Day Weather Forecast

Advertisements
Track Severe Weather on mobile